Time;durP1;ratioP1;P1;durP2;ratioP2;P2;SDS_P1;SDS_P2;PMS_P1;PMS_P2;Temp;Humidity;BMP_temperature;BMP_pressure;BME280_temperature;BME280_humidity;BME280_pressure;Samples;Min_cycle;Max_cycle;Signal;HPM_P1;HPM_P2
2023/08/23 00:01:59;;;;;;;1.85;1.10;;;23.00;65.80;;;;;;6194489;28;20500;-72
2023/08/23 00:05:00;;;;;;;1.48;1.20;;;22.90;64.80;;;;;;6194345;28;20090;-72
2023/08/23 00:08:00;;;;;;;1.30;1.17;;;23.00;64.90;;;;;;6194356;28;20076;-72
2023/08/23 00:11:01;;;;;;;1.23;1.10;;;22.90;64.80;;;;;;6194427;28;20050;-71
2023/08/23 00:14:02;;;;;;;1.40;1.10;;;23.00;64.90;;;;;;6193900;28;20018;-72
2023/08/23 00:17:03;;;;;;;1.40;1.08;;;23.00;64.90;;;;;;6194709;28;20031;-71
2023/08/23 00:20:04;;;;;;;1.23;1.08;;;22.90;64.80;;;;;;6194058;28;20023;-72
2023/08/23 00:23:05;;;;;;;1.55;1.40;;;22.90;64.80;;;;;;6193801;28;20066;-71
2023/08/23 00:26:05;;;;;;;1.40;1.30;;;22.90;64.80;;;;;;6193652;28;20053;-72
2023/08/23 00:29:06;;;;;;;1.55;1.20;;;23.00;64.90;;;;;;6194445;28;20026;-71
2023/08/23 00:32:06;;;;;;;1.17;1.08;;;22.90;65.70;;;;;;6194166;28;20105;-72
2023/08/23 00:35:07;;;;;;;1.85;1.45;;;22.90;64.80;;;;;;6193658;28;20401;-71
2023/08/23 00:38:08;;;;;;;1.60;1.10;;;22.90;64.80;;;;;;6194068;28;20030;-71
2023/08/23 00:41:09;;;;;;;1.27;1.05;;;23.00;64.90;;;;;;6193609;28;20576;-72
2023/08/23 00:44:09;;;;;;;1.75;1.40;;;23.00;65.00;;;;;;6193407;28;20044;-73
2023/08/23 00:47:10;;;;;;;1.90;1.27;;;22.90;64.80;;;;;;6193847;28;20030;-71
2023/08/23 00:50:11;;;;;;;1.30;1.20;;;22.90;64.80;;;;;;6193712;28;20484;-71
2023/08/23 00:53:13;;;;;;;1.50;1.38;;;22.90;64.80;;;;;;6193972;28;20104;-72
2023/08/23 00:56:15;;;;;;;1.30;1.20;;;22.90;64.80;;;;;;6194056;28;20089;-71
2023/08/23 00:59:16;;;;;;;1.73;1.20;;;22.90;64.80;;;;;;6193522;28;20449;-71
2023/08/23 01:02:16;;;;;;;1.20;1.10;;;22.90;64.80;;;;;;6192466;28;20081;-72
2023/08/23 01:05:18;;;;;;;1.52;1.20;;;22.90;64.80;;;;;;6195683;28;20045;-72
2023/08/23 01:09:00;;;;;;;1.40;1.23;;;22.90;64.80;;;;;;6198625;28;20366;-71
2023/08/23 01:12:26;;;;;;;1.23;1.02;;;22.90;64.80;;;;;;6198462;28;20026;-72
2023/08/23 01:15:29;;;;;;;1.77;1.40;;;22.90;64.80;;;;;;6197898;28;20061;-72
2023/08/23 01:18:31;;;;;;;1.15;1.05;;;22.90;64.80;;;;;;6198618;28;20031;-71
2023/08/23 01:21:36;;;;;;;1.55;1.30;;;22.90;64.80;;;;;;6198389;28;20061;-71
2023/08/23 01:24:37;;;;;;;;;;;22.90;64.80;;;;;;6198522;28;20387;-71
2023/08/23 01:27:37;;;;;;;1.48;1.20;;;22.90;65.60;;;;;;6198124;28;19971;-71
2023/08/23 01:30:39;;;;;;;1.42;1.17;;;22.90;64.80;;;;;;6198024;28;20113;-71
2023/08/23 01:33:57;;;;;;;1.50;1.40;;;22.90;64.80;;;;;;6198052;28;20023;-73
2023/08/23 01:37:01;;;;;;;1.98;1.50;;;22.90;64.80;;;;;;6197588;28;20026;-71
2023/08/23 01:40:02;;;;;;;1.58;1.35;;;22.90;64.80;;;;;;6198171;28;20114;-72
2023/08/23 01:43:03;;;;;;;1.65;1.17;;;22.90;64.80;;;;;;6197536;28;20511;-71
2023/08/23 01:46:04;;;;;;;1.60;1.40;;;22.90;64.90;;;;;;6198043;28;20085;-72
2023/08/23 01:49:04;;;;;;;1.70;1.30;;;22.90;64.80;;;;;;6197791;28;20113;-71
2023/08/23 01:52:05;;;;;;;1.38;1.27;;;22.90;64.90;;;;;;6197503;28;20033;-72
2023/08/23 01:55:06;;;;;;;1.20;1.10;;;22.90;64.90;;;;;;6197632;28;20037;-72
2023/08/23 01:58:07;;;;;;;1.40;1.20;;;22.90;64.80;;;;;;6197531;28;20034;-71
2023/08/23 02:01:07;;;;;;;1.55;1.30;;;22.90;64.80;;;;;;6196915;28;20469;-72
2023/08/23 02:04:08;;;;;;;1.35;1.20;;;22.90;64.90;;;;;;6196833;28;20050;-71
2023/08/23 02:07:09;;;;;;;1.10;1.00;;;22.90;64.80;;;;;;6197742;28;20181;-72
2023/08/23 02:10:09;;;;;;;1.40;1.30;;;22.90;64.80;;;;;;6193735;28;20058;-72
2023/08/23 02:13:10;;;;;;;1.48;1.17;;;22.90;64.80;;;;;;6197417;28;20042;-72
2023/08/23 02:16:11;;;;;;;1.55;1.40;;;22.90;64.80;;;;;;6196255;28;20402;-72
2023/08/23 02:19:11;;;;;;;1.70;1.27;;;22.90;64.90;;;;;;6196230;28;20023;-72
2023/08/23 02:22:12;;;;;;;1.45;1.30;;;22.90;64.90;;;;;;6193367;28;20524;-72
2023/08/23 02:25:12;;;;;;;1.90;1.50;;;22.90;64.90;;;;;;6196353;28;20074;-72
2023/08/23 02:28:13;;;;;;;1.15;1.05;;;22.90;64.80;;;;;;6196946;28;20117;-71
2023/08/23 02:31:14;;;;;;;1.30;1.20;;;22.90;64.90;;;;;;6196652;28;20138;-73
2023/08/23 02:34:14;;;;;;;1.73;1.38;;;22.90;64.80;;;;;;6196524;28;20015;-71
2023/08/23 02:37:15;;;;;;;1.75;1.45;;;22.90;65.00;;;;;;6196322;28;20029;-72
2023/08/23 02:40:16;;;;;;;1.67;1.40;;;22.90;64.90;;;;;;6196516;28;20027;-71
2023/08/23 02:43:16;;;;;;;2.05;1.38;;;22.90;65.00;;;;;;6196187;28;20462;-71
2023/08/23 02:46:17;;;;;;;2.58;1.60;;;22.90;64.90;;;;;;6196341;28;20105;-72
2023/08/23 02:49:17;;;;;;;1.63;1.30;;;22.90;64.90;;;;;;6196143;28;20523;-71
2023/08/23 02:52:18;;;;;;;2.15;1.50;;;22.90;64.80;;;;;;6196356;28;20030;-71
2023/08/23 02:55:19;;;;;;;2.22;1.50;;;22.90;64.90;;;;;;6195633;28;20138;-71
2023/08/23 02:58:19;;;;;;;1.52;1.23;;;22.90;64.90;;;;;;6195074;28;20343;-72
2023/08/23 03:01:20;;;;;;;1.40;1.08;;;22.90;64.90;;;;;;6196065;28;20426;-72
2023/08/23 03:04:21;;;;;;;2.10;1.58;;;22.90;65.00;;;;;;6198493;28;20054;-72
2023/08/23 03:07:21;;;;;;;1.35;1.25;;;22.90;65.00;;;;;;6192030;28;20031;-71
2023/08/23 03:10:22;;;;;;;2.38;1.63;;;22.90;65.00;;;;;;6195436;28;20042;-71
2023/08/23 03:13:22;;;;;;;1.25;1.15;;;22.90;64.90;;;;;;6196028;28;20065;-73
2023/08/23 03:16:23;;;;;;;1.65;1.38;;;22.90;64.90;;;;;;6195494;28;20037;-71
2023/08/23 03:19:23;;;;;;;1.50;1.40;;;22.90;64.90;;;;;;6195294;28;20109;-72
2023/08/23 03:22:24;;;;;;;1.90;1.40;;;22.90;65.00;;;;;;6195433;28;20385;-72
2023/08/23 03:25:25;;;;;;;1.90;1.40;;;22.90;64.90;;;;;;6195121;28;20022;-71
2023/08/23 03:28:26;;;;;;;2.35;1.52;;;22.90;64.90;;;;;;6194083;28;20105;-72
2023/08/23 03:31:27;;;;;;;1.45;1.35;;;22.90;64.90;;;;;;6195341;28;20050;-72
2023/08/23 03:34:27;;;;;;;2.10;1.50;;;22.90;65.00;;;;;;6195216;28;20062;-72
2023/08/23 03:37:28;;;;;;;1.73;1.40;;;22.90;65.00;;;;;;6194989;28;20116;-72
2023/08/23 03:40:34;;;;;;;1.75;1.45;;;22.90;65.00;;;;;;6194948;28;20109;-72
2023/08/23 03:43:35;;;;;;;1.77;1.48;;;22.90;64.90;;;;;;6195076;28;20030;-71
2023/08/23 03:46:36;;;;;;;1.73;1.63;;;22.90;65.00;;;;;;6194739;28;20027;-71
2023/08/23 03:49:36;;;;;;;1.67;1.30;;;22.90;65.00;;;;;;6195276;28;20382;-72
2023/08/23 03:52:37;;;;;;;1.90;1.48;;;22.90;64.90;;;;;;6194736;28;20623;-72
2023/08/23 03:55:38;;;;;;;2.22;1.50;;;22.90;65.00;;;;;;6195028;28;20034;-72
2023/08/23 03:58:38;;;;;;;2.00;1.48;;;22.90;65.00;;;;;;6194666;28;20382;-71
2023/08/23 04:01:39;;;;;;;1.38;1.27;;;22.90;65.00;;;;;;6194468;28;20038;-72
2023/08/23 04:04:40;;;;;;;1.75;1.40;;;22.90;64.90;;;;;;6194559;28;20033;-71
2023/08/23 04:07:40;;;;;;;1.45;1.30;;;22.90;65.00;;;;;;6194425;28;20030;-72
2023/08/23 04:10:49;;;;;;;1.77;1.35;;;22.90;65.00;;;;;;6194388;28;20057;-72
2023/08/23 04:13:49;;;;;;;1.90;1.50;;;22.90;64.90;;;;;;6194414;28;20018;-72
2023/08/23 04:16:50;;;;;;;1.40;1.30;;;22.90;65.00;;;;;;6194353;28;20034;-72
2023/08/23 04:19:51;;;;;;;1.50;1.30;;;22.90;65.00;;;;;;6194141;28;20026;-71
2023/08/23 04:22:51;;;;;;;1.60;1.45;;;22.90;64.90;;;;;;6194609;28;20114;-70
2023/08/23 04:25:52;;;;;;;1.63;1.50;;;22.90;65.00;;;;;;6194025;28;20023;-71
2023/08/23 04:28:53;;;;;;;1.88;1.40;;;22.90;65.00;;;;;;6194262;28;20030;-72
2023/08/23 04:31:54;;;;;;;1.75;1.60;;;22.90;65.00;;;;;;6194182;28;20018;-71
2023/08/23 04:34:54;;;;;;;2.22;1.60;;;22.90;64.90;;;;;;6193669;28;20025;-72
2023/08/23 04:37:55;;;;;;;1.52;1.30;;;22.90;64.90;;;;;;6196489;28;20096;-72
2023/08/23 04:41:00;;;;;;;2.28;1.58;;;22.90;65.00;;;;;;6192081;28;20030;-71
2023/08/23 04:44:00;;;;;;;;;;;22.90;65.00;;;;;;6194768;28;20088;-71
2023/08/23 04:47:01;;;;;;;1.50;1.40;;;22.90;65.00;;;;;;6193852;28;19910;-71
2023/08/23 04:50:02;;;;;;;1.65;1.40;;;22.90;65.00;;;;;;6194125;28;20050;-72
2023/08/23 04:53:03;;;;;;;1.75;1.50;;;22.90;65.00;;;;;;6193826;28;20050;-72
2023/08/23 04:56:04;;;;;;;2.42;1.38;;;22.90;65.00;;;;;;6193882;28;20026;-72
2023/08/23 04:59:04;;;;;;;1.67;1.42;;;22.90;65.00;;;;;;6194459;28;20023;-71
2023/08/23 05:02:05;;;;;;;1.83;1.50;;;22.90;65.00;;;;;;6182110;28;20023;-71
2023/08/23 05:05:06;;;;;;;1.90;1.50;;;22.90;65.00;;;;;;6180726;28;20477;-71
2023/08/23 05:08:07;;;;;;;1.95;1.50;;;22.90;65.00;;;;;;6193647;28;20113;-72
2023/08/23 05:11:07;;;;;;;1.42;1.20;;;22.90;65.00;;;;;;6193711;28;20112;-71
2023/08/23 05:14:08;;;;;;;1.95;1.50;;;22.90;65.00;;;;;;6193126;28;20456;-70
2023/08/23 05:17:09;;;;;;;1.50;1.40;;;22.90;65.00;;;;;;6194183;28;20026;-71
2023/08/23 05:20:10;;;;;;;1.77;1.45;;;22.90;65.00;;;;;;6193138;28;20022;-71
2023/08/23 05:23:11;;;;;;;1.80;1.45;;;22.90;65.00;;;;;;6193450;28;20039;-71
2023/08/23 05:26:12;;;;;;;1.60;1.45;;;22.90;65.00;;;;;;6193292;28;20029;-71
2023/08/23 05:29:12;;;;;;;1.75;1.40;;;22.90;65.00;;;;;;6193550;28;20467;-72
2023/08/23 05:32:13;;;;;;;1.88;1.58;;;22.90;65.00;;;;;;6195701;28;20031;-71
2023/08/23 05:35:13;;;;;;;1.60;1.35;;;22.90;65.10;;;;;;6193457;28;20228;-71
2023/08/23 05:38:14;;;;;;;1.52;1.30;;;22.90;65.00;;;;;;6193675;28;20054;-72
2023/08/23 05:41:15;;;;;;;1.83;1.40;;;22.90;65.00;;;;;;6193015;28;20134;-71
2023/08/23 05:44:15;;;;;;;1.67;1.30;;;22.90;65.00;;;;;;6193196;28;20040;-71
2023/08/23 05:47:16;;;;;;;1.70;1.55;;;22.90;65.00;;;;;;6182174;28;20027;-71
2023/08/23 05:50:17;;;;;;;1.58;1.48;;;22.90;65.10;;;;;;6188468;28;20085;-71
2023/08/23 05:53:20;;;;;;;1.40;1.13;;;22.90;65.90;;;;;;6195090;28;20033;-71
2023/08/23 05:56:21;;;;;;;1.30;1.20;;;22.90;65.00;;;;;;6196858;28;20366;-71
2023/08/23 05:59:21;;;;;;;1.48;1.33;;;22.90;65.90;;;;;;6192688;28;20076;-71
2023/08/23 06:02:23;;;;;;;1.67;1.30;;;22.90;65.00;;;;;;6205012;28;20568;-71
2023/08/23 06:05:23;;;;;;;1.50;1.25;;;22.90;65.00;;;;;;6203768;28;20413;-71
2023/08/23 06:08:24;;;;;;;1.65;1.38;;;22.90;65.00;;;;;;6198095;28;20023;-72
2023/08/23 06:11:25;;;;;;;1.27;1.17;;;22.90;65.00;;;;;;6198425;28;20464;-72
2023/08/23 06:14:25;;;;;;;2.03;1.60;;;22.90;65.00;;;;;;6197704;28;20039;-72
2023/08/23 06:17:26;;;;;;;1.40;1.20;;;22.90;65.00;;;;;;6197560;28;20026;-71
2023/08/23 06:20:28;;;;;;;1.50;1.30;;;22.90;65.10;;;;;;6197699;28;20030;-71
2023/08/23 06:23:29;;;;;;;1.63;1.35;;;22.90;65.00;;;;;;6197008;28;20038;-71
2023/08/23 06:26:30;;;;;;;1.90;1.52;;;22.90;65.00;;;;;;6197815;28;20453;-72
2023/08/23 06:29:30;;;;;;;1.30;1.20;;;22.90;65.00;;;;;;6197602;28;20022;-71
2023/08/23 06:32:31;;;;;;;1.20;1.00;;;22.90;65.00;;;;;;6198156;28;20029;-72
2023/08/23 06:35:32;;;;;;;1.40;1.20;;;22.90;65.00;;;;;;6197755;28;20030;-71
2023/08/23 06:38:33;;;;;;;1.63;1.42;;;22.90;65.00;;;;;;6198150;28;20038;-71
2023/08/23 06:41:33;;;;;;;2.00;1.60;;;22.90;65.00;;;;;;6197367;28;20027;-72
2023/08/23 06:44:34;;;;;;;17.20;1.70;;;22.90;65.00;;;;;;6197462;28;20089;-72
2023/08/23 06:47:36;;;;;;;4.18;1.50;;;23.00;62.00;;;;;;6187405;28;22014;-72
2023/08/23 06:50:37;;;;;;;9.20;1.95;;;23.30;60.00;;;;;;6197408;28;20022;-72
2023/08/23 06:53:37;;;;;;;6.72;1.42;;;23.50;59.20;;;;;;6199814;28;20045;-72
2023/08/23 06:56:38;;;;;;;6.60;1.70;;;23.60;58.30;;;;;;6196956;28;20031;-72
2023/08/23 06:59:38;;;;;;;8.13;1.70;;;23.80;57.80;;;;;;6197463;28;20022;-72
2023/08/23 07:02:39;;;;;;;3.53;1.27;;;24.00;57.40;;;;;;6179582;28;20405;-72
2023/08/23 07:05:40;;;;;;;7.95;1.60;;;24.00;56.90;;;;;;6194256;28;20033;-72
2023/08/23 07:08:42;;;;;;;7.50;1.40;;;24.10;56.50;;;;;;6185212;28;20034;-72
2023/08/23 07:11:42;;;;;;;1.63;1.23;;;24.20;56.30;;;;;;6196622;28;20077;-72
2023/08/23 07:14:45;;;;;;;2.47;1.35;;;24.20;55.90;;;;;;6195780;28;20034;-72
2023/08/23 07:17:46;;;;;;;1.80;1.45;;;24.30;55.70;;;;;;6197017;28;20070;-72
2023/08/23 07:20:46;;;;;;;4.75;1.20;;;24.40;55.60;;;;;;6196910;28;20477;-72
2023/08/23 07:23:47;;;;;;;3.90;1.67;;;24.30;55.50;;;;;;6196162;28;20034;-72
2023/08/23 07:26:48;;;;;;;4.47;1.40;;;24.40;55.20;;;;;;6195464;28;20026;-72
2023/08/23 07:29:48;;;;;;;1.52;1.10;;;24.50;55.00;;;;;;6196904;28;20038;-73
2023/08/23 07:32:49;;;;;;;5.88;1.85;;;24.50;54.70;;;;;;6198378;28;20544;-73
2023/08/23 07:36:00;;;;;;;2.97;1.33;;;24.50;54.50;;;;;;6196737;28;20077;-73
2023/08/23 07:39:00;;;;;;;1.95;1.30;;;24.50;54.70;;;;;;6198207;28;20270;-73
2023/08/23 07:42:01;;;;;;;2.42;1.50;;;24.40;54.80;;;;;;6196774;28;20034;-73
2023/08/23 07:45:02;;;;;;;3.88;1.05;;;24.40;55.00;;;;;;6197685;28;20539;-72
2023/08/23 07:48:04;;;;;;;3.88;1.70;;;24.40;54.90;;;;;;6198102;28;20088;-73
2023/08/23 07:51:07;;;;;;;2.83;1.55;;;24.40;54.80;;;;;;6197857;28;20023;-73
2023/08/23 07:54:08;;;;;;;2.47;1.67;;;24.50;54.70;;;;;;6198190;28;20767;-72
2023/08/23 07:57:09;;;;;;;6.30;1.85;;;24.50;54.60;;;;;;6197112;28;20030;-72
2023/08/23 08:00:10;;;;;;;5.07;1.52;;;24.50;54.70;;;;;;6197788;28;20586;-72
2023/08/23 08:03:11;;;;;;;4.03;1.92;;;24.50;54.60;;;;;;6195057;28;20093;-72
2023/08/23 08:06:12;;;;;;;3.78;1.70;;;24.50;54.60;;;;;;6188882;28;20026;-72
2023/08/23 08:09:12;;;;;;;8.75;1.92;;;24.50;54.40;;;;;;6196520;28;20043;-72
2023/08/23 08:12:13;;;;;;;5.60;1.88;;;24.50;54.50;;;;;;6196143;28;20038;-72
2023/08/23 08:15:13;;;;;;;3.50;1.58;;;24.50;54.30;;;;;;6192355;28;20477;-72
2023/08/23 08:18:14;;;;;;;4.07;1.83;;;24.50;54.10;;;;;;6193409;28;20102;-74
2023/08/23 08:21:15;;;;;;;3.53;2.00;;;24.50;54.00;;;;;;6196585;28;20100;-72
2023/08/23 08:24:15;;;;;;;2.20;1.45;;;24.50;54.10;;;;;;6208433;28;20030;-72
2023/08/23 08:27:16;;;;;;;6.78;1.63;;;24.50;54.00;;;;;;6208923;28;20571;-72
2023/08/23 08:30:16;;;;;;;3.17;1.60;;;24.50;53.90;;;;;;6197431;28;20101;-72
2023/08/23 08:33:17;;;;;;;4.75;1.60;;;24.50;53.90;;;;;;6193595;28;20033;-73
2023/08/23 08:36:18;;;;;;;2.88;1.55;;;24.60;53.90;;;;;;6197103;28;20030;-72
2023/08/23 08:39:18;;;;;;;2.67;1.48;;;24.50;53.70;;;;;;6197365;28;20073;-73
2023/08/23 08:42:19;;;;;;;4.47;1.35;;;24.60;53.70;;;;;;6196380;28;20038;-72
2023/08/23 08:45:20;;;;;;;3.22;1.60;;;24.50;53.60;;;;;;6197234;28;20045;-73
2023/08/23 08:48:21;;;;;;;2.53;1.42;;;24.50;53.60;;;;;;6196685;28;20019;-72
2023/08/23 08:51:23;;;;;;;2.75;1.65;;;24.50;53.60;;;;;;6196867;28;20030;-72
2023/08/23 08:54:25;;;;;;;4.07;1.40;;;24.50;53.50;;;;;;6196950;28;20037;-72
2023/08/23 08:57:28;;;;;;;3.70;1.50;;;24.60;53.40;;;;;;6196979;28;20022;-72
2023/08/23 09:00:30;;;;;;;2.25;1.35;;;24.50;53.40;;;;;;6197168;28;20042;-72
2023/08/23 09:03:31;;;;;;;1.58;1.08;;;24.60;53.40;;;;;;6196521;28;20026;-72
2023/08/23 09:06:32;;;;;;;2.40;1.35;;;24.50;53.20;;;;;;6196859;28;20105;-72
2023/08/23 09:09:33;;;;;;;2.80;1.45;;;24.50;53.90;;;;;;6196077;28;20133;-73
2023/08/23 09:12:33;;;;;;;3.25;1.23;;;24.60;53.30;;;;;;6196378;28;20040;-73
2023/08/23 09:15:34;;;;;;;1.92;1.30;;;24.60;53.30;;;;;;6195747;28;20046;-72
2023/08/23 09:18:35;;;;;;;1.85;1.30;;;24.60;53.10;;;;;;6196754;28;20125;-72
2023/08/23 09:21:35;;;;;;;3.20;1.50;;;24.60;53.20;;;;;;6194661;28;20413;-71
2023/08/23 09:24:36;;;;;;;2.13;1.10;;;24.60;53.00;;;;;;6200762;28;20137;-72
2023/08/23 09:27:37;;;;;;;4.60;1.08;;;24.60;53.00;;;;;;6199264;28;20022;-73
2023/08/23 09:30:38;;;;;;;3.80;1.38;;;24.50;53.00;;;;;;6202182;28;20031;-73
2023/08/23 09:33:39;;;;;;;1.88;1.25;;;24.60;52.90;;;;;;6201042;28;20089;-72
2023/08/23 09:36:42;;;;;;;1.58;1.05;;;24.60;52.90;;;;;;6194583;28;20029;-72
2023/08/23 09:39:43;;;;;;;2.85;1.23;;;24.60;52.80;;;;;;6201317;28;20022;-73
2023/08/23 09:42:44;;;;;;;2.17;1.25;;;24.60;52.80;;;;;;6200674;28;20031;-72
2023/08/23 09:45:45;;;;;;;1.75;1.20;;;24.60;52.80;;;;;;6199306;28;20030;-72
2023/08/23 09:48:46;;;;;;;2.33;1.17;;;24.60;52.80;;;;;;6206782;28;20044;-73
2023/08/23 09:51:49;;;;;;;2.30;1.10;;;24.60;52.70;;;;;;6200531;28;20024;-72
2023/08/23 09:54:58;;;;;;;1.48;1.13;;;24.60;52.50;;;;;;6200067;28;20470;-73
2023/08/23 09:58:00;;;;;;;1.17;1.00;;;24.60;52.70;;;;;;6200538;28;20030;-74
2023/08/23 10:01:01;;;;;;;1.95;1.23;;;24.60;52.70;;;;;;6200413;28;20378;-72
2023/08/23 10:04:03;;;;;;;2.47;1.30;;;24.60;52.60;;;;;;6200181;28;20092;-72
2023/08/23 10:07:04;;;;;;;1.65;1.20;;;24.60;52.40;;;;;;6200746;28;20568;-72
2023/08/23 10:10:06;;;;;;;1.88;1.00;;;24.60;52.40;;;;;;6199918;28;20049;-72
2023/08/23 10:13:07;;;;;;;1.98;1.10;;;24.60;52.40;;;;;;6200412;28;20523;-72
2023/08/23 10:16:08;;;;;;;1.48;1.02;;;24.60;52.50;;;;;;6200002;28;20817;-73
2023/08/23 10:19:09;;;;;;;4.78;1.05;;;24.60;52.50;;;;;;6199901;28;21177;-73
2023/08/23 10:22:11;;;;;;;2.40;1.20;;;24.60;52.60;;;;;;6199768;28;20473;-73
2023/08/23 10:25:20;;;;;;;9.48;1.38;;;24.60;52.50;;;;;;6199201;28;20026;-73
2023/08/23 10:28:20;;;;;;;6.50;1.02;;;24.60;52.80;;;;;;6200036;28;20026;-74
2023/08/23 10:31:26;;;;;;;4.30;1.02;;;24.60;52.60;;;;;;6199864;28;20030;-74
2023/08/23 10:34:27;;;;;;;2.03;1.17;;;24.60;53.50;;;;;;6199545;28;20413;-74
2023/08/23 10:37:28;;;;;;;2.08;1.10;;;24.60;52.70;;;;;;6199432;28;20030;-74
2023/08/23 10:40:31;;;;;;;5.45;1.20;;;24.60;52.70;;;;;;6199245;28;20038;-74
2023/08/23 10:43:32;;;;;;;5.65;1.23;;;24.60;53.50;;;;;;6198965;28;20493;-74
2023/08/23 10:46:43;;;;;;;1.10;0.95;;;24.70;52.60;;;;;;6199786;28;20027;-74
2023/08/23 10:49:46;;;;;;;1.52;1.00;;;24.70;52.60;;;;;;6199253;28;20049;-74
2023/08/23 10:52:49;;;;;;;2.38;1.10;;;24.70;52.40;;;;;;6199472;28;20796;-73
2023/08/23 10:55:49;;;;;;;1.00;0.88;;;24.70;52.40;;;;;;6197388;28;20065;-75
2023/08/23 10:58:50;;;;;;;1.30;0.98;;;24.60;52.20;;;;;;6199090;28;20033;-74
2023/08/23 11:01:51;;;;;;;3.13;1.10;;;24.70;52.30;;;;;;6199158;28;20033;-74
2023/08/23 11:04:51;;;;;;;2.13;0.90;;;24.70;52.20;;;;;;6198791;28;20056;-74
2023/08/23 11:07:52;;;;;;;1.38;0.98;;;24.60;52.20;;;;;;6199572;28;20031;-74
2023/08/23 11:10:52;;;;;;;0.88;0.85;;;24.60;52.10;;;;;;6199334;28;20057;-74
2023/08/23 11:13:53;;;;;;;1.10;0.77;;;24.60;52.10;;;;;;6199755;28;20409;-74
2023/08/23 11:16:54;;;;;;;4.45;1.00;;;24.70;52.00;;;;;;6172003;28;20118;-74
2023/08/23 11:19:54;;;;;;;2.78;0.90;;;24.60;51.90;;;;;;6172699;28;20043;-74
2023/08/23 11:22:55;;;;;;;1.35;0.90;;;24.60;51.90;;;;;;6172242;28;20718;-74
2023/08/23 11:25:56;;;;;;;1.08;0.82;;;24.60;51.90;;;;;;6171666;28;20034;-73
2023/08/23 11:28:57;;;;;;;1.48;0.98;;;24.60;51.90;;;;;;6172373;28;20699;-74
2023/08/23 11:31:57;;;;;;;2.83;0.90;;;24.60;51.70;;;;;;6172211;28;20123;-74
2023/08/23 11:34:59;;;;;;;1.30;0.90;;;24.60;51.70;;;;;;6172061;28;20034;-74
2023/08/23 11:38:02;;;;;;;1.30;0.80;;;24.70;51.70;;;;;;6172189;28;20042;-75
2023/08/23 11:41:03;;;;;;;1.42;1.00;;;24.60;51.50;;;;;;6171824;28;20545;-74
2023/08/23 11:44:07;;;;;;;1.10;0.70;;;24.70;51.80;;;;;;6172234;28;20031;-74
2023/08/23 11:47:09;;;;;;;0.97;0.83;;;24.60;51.70;;;;;;6180917;28;20482;-74
2023/08/23 11:50:11;;;;;;;2.05;0.95;;;24.60;51.60;;;;;;6197902;28;20421;-74
2023/08/23 11:53:12;;;;;;;1.92;1.15;;;24.60;51.40;;;;;;6198768;28;20034;-74
2023/08/23 11:56:14;;;;;;;1.38;0.95;;;24.60;51.50;;;;;;6198466;28;20022;-74
2023/08/23 11:59:14;;;;;;;1.92;0.88;;;24.70;51.60;;;;;;6198597;28;20485;-74
2023/08/23 12:02:15;;;;;;;1.17;0.90;;;24.70;51.50;;;;;;6198249;28;20045;-73
2023/08/23 12:05:17;;;;;;;2.50;0.90;;;24.70;51.40;;;;;;6198457;28;20022;-74
2023/08/23 12:08:18;;;;;;;1.10;0.93;;;24.70;51.40;;;;;;6198509;28;20509;-74
2023/08/23 12:11:19;;;;;;;1.02;0.93;;;24.60;51.30;;;;;;6196140;28;20096;-73
2023/08/23 12:14:20;;;;;;;1.15;0.90;;;24.70;51.30;;;;;;6185876;28;20637;-73
2023/08/23 12:17:20;;;;;;;1.15;0.90;;;24.70;51.30;;;;;;6193973;28;20037;-73
2023/08/23 12:20:21;;;;;;;1.13;0.90;;;24.70;51.60;;;;;;6194576;28;20404;-72
2023/08/23 12:23:22;;;;;;;0.95;0.80;;;24.70;51.50;;;;;;6183948;28;20034;-72
2023/08/23 12:26:26;;;;;;;2.00;0.77;;;24.70;51.50;;;;;;6195020;28;20318;-72
2023/08/23 12:29:27;;;;;;;0.50;0.50;;;24.70;51.40;;;;;;6194583;28;20038;-72
2023/08/23 12:32:27;;;;;;;1.08;0.90;;;24.60;51.30;;;;;;6194427;28;20084;-73
2023/08/23 12:35:28;;;;;;;1.45;0.90;;;24.60;51.20;;;;;;6194950;28;20050;-73
2023/08/23 12:38:28;;;;;;;0.63;0.63;;;24.70;51.20;;;;;;6195002;28;20055;-73
2023/08/23 12:41:29;;;;;;;1.38;0.85;;;24.60;51.20;;;;;;6194187;28;20023;-73
2023/08/23 12:44:32;;;;;;;1.10;0.90;;;24.70;51.80;;;;;;6195034;28;20042;-73
2023/08/23 12:47:33;;;;;;;1.25;0.73;;;24.60;51.00;;;;;;6177418;28;20052;-73
2023/08/23 12:50:33;;;;;;;0.93;0.80;;;24.60;51.00;;;;;;6190316;28;20042;-73
2023/08/23 12:53:34;;;;;;;1.00;0.73;;;24.70;51.20;;;;;;6194341;28;20037;-73
2023/08/23 12:56:36;;;;;;;0.90;0.75;;;24.70;51.00;;;;;;6194049;28;20026;-73
2023/08/23 12:59:37;;;;;;;2.83;0.70;;;24.60;51.10;;;;;;6194621;28;20022;-73
2023/08/23 13:02:37;;;;;;;1.50;0.80;;;24.70;51.60;;;;;;6200785;28;20042;-74
2023/08/23 13:05:38;;;;;;;1.83;0.90;;;24.80;51.30;;;;;;6199212;28;20117;-74
2023/08/23 13:08:39;;;;;;;1.50;0.80;;;24.80;51.30;;;;;;6199020;28;20041;-72
2023/08/23 13:11:39;;;;;;;2.90;1.10;;;24.80;51.30;;;;;;6199148;28;20397;-74
2023/08/23 13:14:40;;;;;;;1.83;1.00;;;24.70;51.20;;;;;;6199139;28;20084;-73
2023/08/23 13:17:41;;;;;;;2.03;0.93;;;24.80;51.10;;;;;;6203320;28;20405;-73
2023/08/23 13:20:42;;;;;;;1.33;0.88;;;24.70;51.10;;;;;;6197847;28;20034;-73
2023/08/23 13:23:44;;;;;;;3.08;1.38;;;24.70;51.10;;;;;;6197423;28;20041;-73
2023/08/23 13:26:44;;;;;;;1.17;0.75;;;24.70;51.00;;;;;;6198551;28;20027;-73
2023/08/23 13:29:45;;;;;;;1.00;0.90;;;24.70;51.00;;;;;;6201795;28;20026;-73
2023/08/23 13:32:46;;;;;;;0.80;0.73;;;24.70;50.90;;;;;;6193901;28;20030;-73
2023/08/23 13:35:46;;;;;;;1.08;0.77;;;24.70;50.90;;;;;;6197678;28;20041;-73
2023/08/23 13:38:47;;;;;;;1.40;0.93;;;24.70;50.80;;;;;;6198274;28;20018;-73
2023/08/23 13:41:47;;;;;;;0.77;0.65;;;24.70;50.80;;;;;;6198109;28;20089;-74
2023/08/23 13:44:48;;;;;;;1.15;0.70;;;24.70;50.90;;;;;;6197370;28;20038;-74
2023/08/23 13:47:48;;;;;;;8.00;1.27;;;24.70;50.80;;;;;;6197843;28;20025;-75
2023/08/23 13:50:49;;;;;;;8.88;1.23;;;24.70;51.20;;;;;;6197928;28;20038;-76
2023/08/23 13:53:50;;;;;;;1.65;0.95;;;24.80;51.20;;;;;;6197892;28;20053;-76
2023/08/23 13:56:50;;;;;;;3.40;0.80;;;24.80;50.90;;;;;;6197578;28;20030;-75
2023/08/23 13:59:51;;;;;;;2.80;1.00;;;24.80;51.00;;;;;;6198128;28;20077;-75
2023/08/23 14:02:51;;;;;;;4.53;1.15;;;24.80;50.80;;;;;;6197571;28;20041;-75
2023/08/23 14:06:00;;;;;;;8.43;1.10;;;24.80;50.80;;;;;;6194558;28;20070;-75
2023/08/23 14:09:00;;;;;;;5.90;1.20;;;24.80;50.70;;;;;;6196404;28;20099;-75
2023/08/23 14:12:02;;;;;;;1.63;0.90;;;24.80;50.80;;;;;;6197222;28;20034;-74
2023/08/23 14:15:03;;;;;;;4.00;1.00;;;24.80;50.70;;;;;;6198081;28;20026;-75
2023/08/23 14:18:04;;;;;;;3.45;0.90;;;24.80;50.60;;;;;;6199116;28;20136;-74
2023/08/23 14:21:04;;;;;;;2.40;1.10;;;24.80;50.50;;;;;;6199387;28;20031;-75
2023/08/23 14:24:06;;;;;;;3.00;1.52;;;24.80;51.20;;;;;;6200518;28;20038;-74
2023/08/23 14:27:07;;;;;;;3.90;1.15;;;24.80;50.50;;;;;;6198810;28;20363;-74
2023/08/23 14:30:08;;;;;;;2.35;0.90;;;24.80;50.60;;;;;;6199167;28;20027;-74
2023/08/23 14:33:09;;;;;;;2.55;1.00;;;24.70;50.50;;;;;;6199041;28;20030;-74
2023/08/23 14:36:09;;;;;;;2.47;0.98;;;24.80;50.60;;;;;;6213751;28;20413;-75
2023/08/23 14:39:13;;;;;;;3.70;1.10;;;24.80;50.50;;;;;;6199007;28;20015;-75
2023/08/23 14:42:13;;;;;;;2.70;1.20;;;24.70;50.40;;;;;;6198647;28;20030;-75
2023/08/23 14:45:14;;;;;;;1.90;0.93;;;24.70;50.50;;;;;;6198543;28;20088;-75
2023/08/23 14:48:15;;;;;;;1.83;1.02;;;24.70;50.40;;;;;;6198631;28;20477;-73
2023/08/23 14:51:16;;;;;;;2.58;1.05;;;24.80;50.30;;;;;;6198637;28;20026;-74
2023/08/23 14:54:16;;;;;;;1.73;0.80;;;24.70;50.40;;;;;;6198286;28;20026;-75
2023/08/23 14:57:17;;;;;;;1.92;1.00;;;24.70;50.30;;;;;;6198399;28;20105;-74
2023/08/23 15:00:18;;;;;;;1.80;0.98;;;24.80;50.30;;;;;;6198565;28;20066;-75
2023/08/23 15:03:18;;;;;;;1.63;0.90;;;24.80;50.30;;;;;;6198477;28;20030;-74
2023/08/23 15:06:19;;;;;;;2.28;0.88;;;24.80;50.20;;;;;;6197919;28;20030;-74
2023/08/23 15:09:19;;;;;;;0.77;0.73;;;24.80;50.20;;;;;;6198407;28;20489;-75
2023/08/23 15:12:20;;;;;;;1.38;0.90;;;24.80;50.30;;;;;;6202018;28;20031;-75
2023/08/23 15:15:21;;;;;;;1.17;0.85;;;24.70;50.20;;;;;;6197413;28;20485;-75
2023/08/23 15:18:21;;;;;;;2.17;1.20;;;24.70;50.30;;;;;;6187165;28;20124;-73
2023/08/23 15:21:22;;;;;;;1.60;0.90;;;24.70;50.20;;;;;;6187359;28;20054;-76
2023/08/23 15:24:22;;;;;;;1.63;1.00;;;24.80;50.10;;;;;;6193042;28;20121;-74
2023/08/23 15:27:24;;;;;;;2.28;1.38;;;24.80;50.20;;;;;;6196308;28;20062;-74
2023/08/23 15:30:25;;;;;;;2.78;1.10;;;24.80;50.20;;;;;;6195762;28;20026;-75
2023/08/23 15:33:26;;;;;;;2.05;1.08;;;24.70;50.10;;;;;;6195864;28;20026;-75
2023/08/23 15:36:26;;;;;;;1.13;0.98;;;24.80;50.10;;;;;;6195436;28;20034;-75
2023/08/23 15:39:27;;;;;;;2.47;1.00;;;24.80;50.10;;;;;;6195414;28;20413;-75
2023/08/23 15:42:27;;;;;;;1.70;1.00;;;24.80;50.10;;;;;;6195942;28;20473;-75
2023/08/23 15:45:28;;;;;;;1.95;1.00;;;24.80;50.10;;;;;;6195001;28;20026;-75